• Join FlightAware (Why Join?)
  • Login
  • US Flag 
10:02AM EDT


 

Airport Tracker/Info


-or-


 

Live Flight TrackerFlight Track Log ✈ RPA4886 ✈ 10-May-2013 ✈ KIAD - KALB

Flight Track Log - Related Links

Times and Time Zones

All times are in EDT time to prevent confusion due to time zone crossing. See the RPA4886 flight status page for this flight to view local times or setup timezone preferences in your user account.

Time Position Orientation Groundspeed Altitude Reporting Facility
EDT Latitude Longitude Course Direction KTS MPH feet Rate Location/Type
10:05PM 38.9625 -77.5297 North 189 217 2,200  Level Washington Center
10:06PM 38.9992 -77.5733 317° Northwest 202 232 4,200 2,100 Climbing Washington Center
10:07PM 39.0483 -77.6336 316° Northwest 217 250 6,500 2,100 Climbing Washington Center
10:08PM 39.1169 -77.6356 359° North 243 280 8,500 2,100 Climbing Washington Center
10:09PM 39.1903 -77.6214 North 243 280 10,700 1,200 Climbing Washington Center
10:10PM 39.2700 -77.5889 18° North 267 307 11,000 120 Climbing Washington Center
10:11PM 39.5556 -77.4500 North  Level FlightAware Approximate
10:11PM 39.3511 -77.5939 357° North 280 322 11,000  Level Washington Center
10:12PM 39.4281 -77.6039 354° North 280 322 11,000 840 Level Washington Center
10:13PM 39.4994 -77.5792 15° North 269 310 12,700 1,680 Climbing Washington Center
10:15PM 39.6144 -77.4736 35° Northeast 291 335 15,800 1,500 Climbing New York Center
10:16PM 39.6844 -77.4506 14° North 286 329 16,900 1,020 Climbing New York Center
10:17PM 39.7658 -77.4503 360° North 286 329 17,900 540 Climbing New York Center
10:18PM 39.8639 -77.4489 North 296 341 18,000  Climbing New York Center
10:19PM 39.9614 -77.4231 11° North 343 395 18,000  Level New York Center
10:20PM 40.0519 -77.3692 24° Northeast 355 409 18,000  Level New York Center
10:21PM 40.1425 -77.3153 24° Northeast 355 409 18,000  Level New York Center
10:22PM 40.2328 -77.2667 22° Northeast 349 402 18,000  Level New York Center
10:23PM 40.3208 -77.2178 23° Northeast 342 394 18,000  Level New York Center
10:24PM 40.3919 -77.1781 23° Northeast 342 394 18,000  Level New York Center
10:25PM 40.4994 -77.1142 24° Northeast 342 394 18,000 360 Level New York Center
10:26PM 40.5856 -77.0647 24° Northeast 342 394 18,800 480 Climbing New York Center
10:27PM 40.6628 -77.0225 23° Northeast 342 394 19,000 60 Climbing New York Center
10:28PM 40.7617 -76.9658 23° Northeast 342 394 19,000  Level New York Center
10:29PM 40.8542 -76.9111 24° Northeast 350 403 19,000  Level New York Center
10:30PM 40.9467 -76.8564 24° Northeast 355 409 19,000  Level New York Center
10:31PM 41.0433 -76.8017 23° Northeast 360 414 19,000  Level New York Center
10:32PM 41.1400 -76.7442 24° Northeast 366 421 19,000  Level New York Center
10:33PM 41.2364 -76.6892 23° Northeast 366 421 19,000  Level New York Center
10:34PM 41.3225 -76.6331 26° Northeast 372 428 19,000  Level New York Center
10:35PM 41.4297 -76.5733 23° Northeast 372 428 19,000  Level New York Center
10:36PM 41.5261 -76.5150 24° Northeast 372 428 19,000  Level New York Center
10:37PM 41.6228 -76.4569 24° Northeast 372 428 19,000  Level New York Center
10:38PM 41.7169 -76.4036 23° Northeast 372 428 19,000  Level New York Center
10:39PM 41.8047 -76.3500 24° Northeast 372 428 19,000  Level New York Center
10:40PM 41.9097 -76.2864 24° Northeast 372 428 19,000  Level New York Center
10:42PM 42.0311 -76.2139 24° Northeast 378 435 19,000  Level Boston Center
10:43PM 42.1375 -76.1503 24° Northeast 357 411 19,000  Level Boston Center
10:44PM 42.1931 -76.0469 54° Northeast 337 388 19,000  Level Boston Center
10:45PM 42.2300 -75.9286 67° East 325 374 19,000  Level Boston Center
10:46PM 42.2733 -75.8103 64° Northeast 330 380 19,000  Level Boston Center
10:47PM 42.3022 -75.6769 74° East 330 380 19,000  Level Boston Center
10:48PM 42.3325 -75.5550 71° East 330 380 19,000  Level Boston Center
10:49PM 42.3697 -75.4106 71° East 335 386 19,000 -240 Level Boston Center
10:50PM 42.3981 -75.2853 73° East 340 391 18,600 -840 Descending Boston Center
10:51PM 42.4283 -75.1575 72° East 340 391 17,400 -1,200 Descending Boston Center
10:52PM 42.4628 -75.0208 71° East 354 407 16,300 -1,080 Descending Boston Center
10:53PM 42.4858 -74.9206 73° East 360 414 15,300 -1,200 Descending Boston Center
10:54PM 42.5181 -74.7808 73° East 338 389 13,900 -1,260 Descending Boston Center
10:55PM 42.5431 -74.6775 72° East 315 362 12,800 -1,200 Descending Boston Center
10:55PM 42.5542 -74.6358 70° East 318 366 12,400 -1,320 Descending Boston Center
10:56PM 42.5725 -74.5489 74° East 320 368 11,500 -1,320 Descending Boston Center
10:56PM 42.5836 -74.5183 64° Northeast 323 372 11,100 -1,200 Descending Boston Center
10:57PM 42.6033 -74.4597 65° Northeast 307 353 10,300 -1,380 Descending Boston Center
10:57PM 42.6206 -74.4236 57° Northeast 287 330 9,700 -1,620 Descending Boston Center
10:58PM 42.6508 -74.3597 57° Northeast 279 321 8,700 -1,500 Descending Boston Center
10:58PM 42.6639 -74.3347 55° Northeast 282 325 8,200 -1,500 Descending Boston Center
10:59PM 42.6900 -74.2733 60° Northeast 279 321 7,200 -1,740 Descending Boston Center
10:59PM 42.7050 -74.2428 56° Northeast 289 333 6,500 -2,100 Descending Boston Center
11:00PM 42.7353 -74.1756 58° Northeast 279 321 5,100 -2,100 Descending Boston Center
11:00PM 42.7481 -74.1506 55° Northeast 283 326 4,400 -1,500 Descending Boston Center
11:01PM 42.7758 -74.0978 54° Northeast 279 321 3,600 -1,320 Descending Boston Center
11:01PM 42.7953 -74.0669 49° Northeast 276 318 3,100 -600 Descending Boston Center
11:02PM 42.8231 -74.0197 51° Northeast 259 298 3,000 -120 Descending Boston Center
11:03PM 42.8422 -73.9778 58° Northeast 228 262 3,000  Level Boston Center
11:03PM 42.8489 -73.9411 76° East 231 266 3,000 -600 Level Boston Center
11:04PM 42.8517 -73.9014 85° East 194 223 2,400 -540 Descending Boston Center
11:04PM 42.8622 -73.8792 57° Northeast 204 235 2,500 -840 Climbing Boston Center
11:05PM 42.8503 -73.8333 110° East 167 192 1,600 -660 Descending Boston Center
11:06PM 42.8214 -73.8131 153° Southeast 99 114 1,500 -360 Descending Boston Center
11:07PM 42.7881 -73.8094 175° South 99 114 900 -600 Descending Boston Center